createdAt,value
2017-04-30T00:00:47.739Z,1004.78
2017-04-30T00:01:47.769Z,1004.79
2017-04-30T00:02:47.802Z,1004.78
2017-04-30T00:03:47.836Z,1004.78
2017-04-30T00:04:47.868Z,1004.81
2017-04-30T00:05:47.899Z,1004.77
2017-04-30T00:06:47.933Z,1004.74
2017-04-30T00:07:47.970Z,1004.74
2017-04-30T00:08:47.999Z,1004.78
2017-04-30T00:09:48.029Z,1004.77
2017-04-30T00:10:48.063Z,1004.74
2017-04-30T00:11:48.096Z,1004.77
2017-04-30T00:12:48.127Z,1004.78
2017-04-30T00:13:48.161Z,1004.77
2017-04-30T00:14:48.194Z,1004.78
2017-04-30T00:15:48.225Z,1004.78
2017-04-30T00:16:48.257Z,1004.8
2017-04-30T00:17:48.290Z,1004.8
2017-04-30T00:18:48.323Z,1004.83
2017-04-30T00:19:48.356Z,1004.8
2017-04-30T00:20:48.388Z,1004.85
2017-04-30T00:21:48.420Z,1004.82
2017-04-30T00:22:48.453Z,1004.83
2017-04-30T00:23:48.483Z,1004.84
2017-04-30T00:24:48.517Z,1004.85
2017-04-30T00:25:48.549Z,1004.9
2017-04-30T00:26:48.582Z,1004.87
2017-04-30T00:27:48.613Z,1004.92
2017-04-30T00:28:48.648Z,1004.87
2017-04-30T00:29:48.679Z,1004.82
2017-04-30T00:30:48.713Z,1004.9
2017-04-30T00:31:48.741Z,1004.9
2017-04-30T00:32:48.776Z,1004.88
2017-04-30T00:33:48.809Z,1004.85
2017-04-30T00:34:48.838Z,1004.87
2017-04-30T00:35:48.872Z,1004.84
2017-04-30T00:36:48.905Z,1004.86
2017-04-30T00:37:48.938Z,1004.82
2017-04-30T00:38:48.967Z,1004.86
2017-04-30T00:39:49.000Z,1004.85
2017-04-30T00:40:49.032Z,1004.88
2017-04-30T00:41:49.066Z,1004.86
2017-04-30T00:42:49.097Z,1004.89
2017-04-30T00:43:49.130Z,1004.89
2017-04-30T00:44:49.160Z,1004.89
2017-04-30T00:45:49.194Z,1004.89
2017-04-30T00:46:49.224Z,1004.93
2017-04-30T00:47:49.259Z,1004.93
2017-04-30T00:48:49.291Z,1004.9
2017-04-30T00:49:49.322Z,1004.93
2017-04-30T00:50:49.354Z,1004.9
2017-04-30T00:51:49.385Z,1004.89
2017-04-30T00:52:49.417Z,1004.86
2017-04-30T00:53:49.451Z,1004.83
2017-04-30T00:54:49.481Z,1004.89
2017-04-30T00:55:49.514Z,1004.89
2017-04-30T00:56:49.545Z,1004.9
2017-04-30T00:57:49.577Z,1004.92
2017-04-30T00:58:49.610Z,1004.96
2017-04-30T00:59:49.644Z,1004.96
2017-04-30T01:00:49.673Z,1004.97
2017-04-30T01:01:49.706Z,1004.99
2017-04-30T01:02:49.739Z,1004.98
2017-04-30T01:03:49.772Z,1004.96
2017-04-30T01:04:49.801Z,1004.96
2017-04-30T01:05:49.835Z,1004.94
2017-04-30T01:06:49.867Z,1004.97
2017-04-30T01:07:49.898Z,1004.97
2017-04-30T01:08:49.931Z,1004.95
2017-04-30T01:09:49.962Z,1004.93
2017-04-30T01:10:49.995Z,1004.95
2017-04-30T01:11:50.026Z,1004.89
2017-04-30T01:12:50.058Z,1004.92
2017-04-30T01:13:50.091Z,1004.94
2017-04-30T01:14:50.121Z,1004.93
2017-04-30T01:15:50.153Z,1004.91
2017-04-30T01:16:50.189Z,1004.94
2017-04-30T01:17:50.219Z,1004.93
2017-04-30T01:18:50.251Z,1004.95
2017-04-30T01:19:50.280Z,1004.93
2017-04-30T01:20:50.315Z,1004.94
2017-04-30T01:21:50.348Z,1004.92
2017-04-30T01:22:50.378Z,1004.96
2017-04-30T01:23:50.410Z,1004.98
2017-04-30T01:24:50.471Z,1004.97
2017-04-30T01:25:50.473Z,1004.97
2017-04-30T01:26:50.513Z,1005.02
2017-04-30T01:27:50.536Z,1005
2017-04-30T01:28:50.570Z,1005.03
2017-04-30T01:29:50.601Z,1005
2017-04-30T01:30:50.632Z,1005.05
2017-04-30T01:31:50.665Z,1005.01
2017-04-30T01:32:50.699Z,1005.02
2017-04-30T01:33:50.729Z,1005
2017-04-30T01:34:50.761Z,1004.99
2017-04-30T01:35:50.792Z,1005.01
2017-04-30T01:36:50.822Z,1005
2017-04-30T01:37:50.855Z,1005.01
2017-04-30T01:38:50.887Z,1005.04
2017-04-30T01:39:50.919Z,1005.05
2017-04-30T01:40:50.950Z,1005.03
2017-04-30T01:41:50.983Z,1005.07
2017-04-30T01:42:51.015Z,1005.07
2017-04-30T01:43:51.046Z,1005.07
2017-04-30T01:44:51.077Z,1005.06
2017-04-30T01:45:51.109Z,1005.08
2017-04-30T01:46:51.141Z,1005.03
2017-04-30T01:47:51.174Z,1005.04
2017-04-30T01:48:51.205Z,1005.05
2017-04-30T01:49:51.239Z,1005.06
2017-04-30T01:50:51.270Z,1005.06
2017-04-30T01:51:51.299Z,1005.08
2017-04-30T01:52:51.331Z,1005.09
2017-04-30T01:53:51.363Z,1005.08
2017-04-30T01:54:51.396Z,1005.08
2017-04-30T01:55:51.426Z,1005.1
2017-04-30T01:56:51.457Z,1005.06
2017-04-30T01:57:51.489Z,1005.11
2017-04-30T01:58:51.555Z,1005.09
2017-04-30T01:59:51.553Z,1005.11
2017-04-30T02:00:51.584Z,1005.12
2017-04-30T02:01:51.618Z,1005.11
2017-04-30T02:02:51.650Z,1005.13
2017-04-30T02:03:51.679Z,1005.12
2017-04-30T02:04:51.713Z,1005.13
2017-04-30T02:05:51.744Z,1005.1
2017-04-30T02:06:51.775Z,1005.15
2017-04-30T02:07:51.808Z,1005.13
2017-04-30T02:08:51.840Z,1005.14
2017-04-30T02:09:51.871Z,1005.16
2017-04-30T02:10:51.901Z,1005.18
2017-04-30T02:11:51.933Z,1005.21
2017-04-30T02:12:51.967Z,1005.18
2017-04-30T02:13:51.997Z,1005.18
2017-04-30T02:14:52.030Z,1005.17
2017-04-30T02:15:52.062Z,1005.18
2017-04-30T02:16:52.092Z,1005.2
2017-04-30T02:17:52.126Z,1005.15
2017-04-30T02:18:52.157Z,1005.16
2017-04-30T02:19:52.186Z,1005.2
2017-04-30T02:20:52.217Z,1005.17
2017-04-30T02:21:52.251Z,1005.19
2017-04-30T02:22:52.283Z,1005.18
2017-04-30T02:23:52.314Z,1005.17
2017-04-30T02:24:52.346Z,1005.18
2017-04-30T02:25:52.378Z,1005.23
2017-04-30T02:26:52.409Z,1005.22
2017-04-30T02:27:52.441Z,1005.21
2017-04-30T02:28:52.471Z,1005.2
2017-04-30T02:29:52.503Z,1005.19
2017-04-30T02:30:52.535Z,1005.21
2017-04-30T02:31:52.565Z,1005.2
2017-04-30T02:32:52.597Z,1005.2
2017-04-30T02:33:52.629Z,1005.19
2017-04-30T02:34:52.659Z,1005.18
2017-04-30T02:35:52.692Z,1005.23
2017-04-30T02:36:52.726Z,1005.2
2017-04-30T02:37:52.755Z,1005.2
2017-04-30T02:38:52.788Z,1005.21
2017-04-30T02:39:52.816Z,1005.21
2017-04-30T02:40:52.849Z,1005.19
2017-04-30T02:41:52.880Z,1005.24
2017-04-30T02:42:52.912Z,1005.25
2017-04-30T02:43:52.944Z,1005.21
2017-04-30T02:44:52.976Z,1005.23
2017-04-30T02:45:53.005Z,1005.22
2017-04-30T02:46:53.036Z,1005.21
2017-04-30T02:47:53.070Z,1005.22
2017-04-30T02:48:53.100Z,1005.24
2017-04-30T02:49:53.131Z,1005.24
2017-04-30T02:50:53.162Z,1005.25
2017-04-30T02:51:53.194Z,1005.25
2017-04-30T02:52:53.227Z,1005.23
2017-04-30T02:53:53.257Z,1005.28
2017-04-30T02:54:53.288Z,1005.29
2017-04-30T02:55:53.320Z,1005.24
2017-04-30T02:56:53.351Z,1005.25
2017-04-30T02:57:53.384Z,1005.25
2017-04-30T02:58:53.413Z,1005.26
2017-04-30T02:59:53.446Z,1005.29
2017-04-30T03:00:53.475Z,1005.28
2017-04-30T03:01:53.507Z,1005.24
2017-04-30T03:02:53.539Z,1005.26
2017-04-30T03:03:53.569Z,1005.26
2017-04-30T03:04:53.600Z,1005.29
2017-04-30T03:05:53.632Z,1005.26
2017-04-30T03:06:53.664Z,1005.31
2017-04-30T03:07:53.696Z,1005.27
2017-04-30T03:08:53.724Z,1005.25
2017-04-30T03:09:53.756Z,1005.29
2017-04-30T03:10:53.791Z,1005.28
2017-04-30T03:11:53.819Z,1005.27
2017-04-30T03:12:53.851Z,1005.29
2017-04-30T03:13:53.881Z,1005.33
2017-04-30T03:14:53.911Z,1005.32
2017-04-30T03:15:53.942Z,1005.32
2017-04-30T03:16:53.973Z,1005.32
2017-04-30T03:17:54.007Z,1005.34
2017-04-30T03:18:54.037Z,1005.38
2017-04-30T03:19:54.068Z,1005.34
2017-04-30T03:20:54.099Z,1005.38
2017-04-30T03:21:54.130Z,1005.41
2017-04-30T03:22:54.160Z,1005.36
2017-04-30T03:23:54.191Z,1005.35
2017-04-30T03:24:54.223Z,1005.37
2017-04-30T03:25:54.285Z,1005.37
2017-04-30T03:26:54.284Z,1005.41
2017-04-30T03:27:54.316Z,1005.43
2017-04-30T03:28:54.346Z,1005.44
2017-04-30T03:29:54.380Z,1005.47
2017-04-30T03:30:54.408Z,1005.45
2017-04-30T03:31:54.439Z,1005.47
2017-04-30T03:32:54.472Z,1005.47
2017-04-30T03:33:54.502Z,1005.45
2017-04-30T03:34:54.533Z,1005.46
2017-04-30T03:35:54.565Z,1005.5
2017-04-30T03:36:54.595Z,1005.54
2017-04-30T03:37:54.626Z,1005.52
2017-04-30T03:38:54.657Z,1005.49
2017-04-30T03:39:54.689Z,1005.49
2017-04-30T03:40:54.719Z,1005.52
2017-04-30T03:41:54.749Z,1005.49
2017-04-30T03:42:54.781Z,1005.48
2017-04-30T03:43:54.813Z,1005.46
2017-04-30T03:44:54.843Z,1005.48
2017-04-30T03:45:54.874Z,1005.48
2017-04-30T03:46:54.906Z,1005.47
2017-04-30T03:47:54.936Z,1005.44
2017-04-30T03:48:54.966Z,1005.45
2017-04-30T03:49:54.999Z,1005.43
2017-04-30T03:50:55.027Z,1005.46
2017-04-30T03:51:55.061Z,1005.45
2017-04-30T03:52:55.090Z,1005.42
2017-04-30T03:53:55.121Z,1005.44
2017-04-30T03:54:55.153Z,1005.44
2017-04-30T03:55:55.183Z,1005.47
2017-04-30T03:56:55.215Z,1005.44
2017-04-30T03:57:55.248Z,1005.47
2017-04-30T03:58:55.280Z,1005.43
2017-04-30T03:59:55.318Z,1005.48
2017-04-30T04:00:55.340Z,1005.46
2017-04-30T04:01:55.372Z,1005.44
2017-04-30T04:02:55.409Z,1005.52
2017-04-30T04:03:55.437Z,1005.53
2017-04-30T04:04:55.468Z,1005.55
2017-04-30T04:05:55.501Z,1005.55
2017-04-30T04:06:55.532Z,1005.56
2017-04-30T04:07:55.565Z,1005.53
2017-04-30T04:08:55.597Z,1005.54
2017-04-30T04:09:55.629Z,1005.57
2017-04-30T04:10:55.661Z,1005.57
2017-04-30T04:11:55.693Z,1005.58
2017-04-30T04:12:55.727Z,1005.55
2017-04-30T04:13:55.761Z,1005.55
2017-04-30T04:14:55.794Z,1005.61
2017-04-30T04:15:55.824Z,1005.58
2017-04-30T04:16:55.857Z,1005.61
2017-04-30T04:17:55.890Z,1005.57
2017-04-30T04:18:55.922Z,1005.57
2017-04-30T04:19:55.956Z,1005.64
2017-04-30T04:20:55.988Z,1005.62
2017-04-30T04:21:56.019Z,1005.63
2017-04-30T04:22:56.053Z,1005.65
2017-04-30T04:23:56.083Z,1005.66
2017-04-30T04:24:56.119Z,1005.63
2017-04-30T04:25:56.149Z,1005.65
2017-04-30T04:26:56.184Z,1005.65
2017-04-30T04:27:56.216Z,1005.63
2017-04-30T04:28:56.249Z,1005.62
2017-04-30T04:29:56.280Z,1005.61
2017-04-30T04:30:56.312Z,1005.65
2017-04-30T04:31:56.344Z,1005.66
2017-04-30T04:32:56.377Z,1005.64
2017-04-30T04:33:56.407Z,1005.64
2017-04-30T04:34:56.440Z,1005.65
2017-04-30T04:35:56.473Z,1005.66
2017-04-30T04:36:56.505Z,1005.67
2017-04-30T04:37:56.537Z,1005.65
2017-04-30T04:38:56.569Z,1005.67
2017-04-30T04:39:56.601Z,1005.7
2017-04-30T04:40:56.632Z,1005.68
2017-04-30T04:41:56.664Z,1005.68
2017-04-30T04:42:56.699Z,1005.64
2017-04-30T04:43:56.729Z,1005.63
2017-04-30T04:44:56.761Z,1005.63
2017-04-30T04:45:56.792Z,1005.63
2017-04-30T04:46:56.825Z,1005.64
2017-04-30T04:47:56.856Z,1005.68
2017-04-30T04:48:56.889Z,1005.68
2017-04-30T04:49:56.921Z,1005.71
2017-04-30T04:50:56.952Z,1005.69
2017-04-30T04:51:56.989Z,1005.67
2017-04-30T04:52:57.019Z,1005.67
2017-04-30T04:53:57.053Z,1005.68
2017-04-30T04:54:57.085Z,1005.71
2017-04-30T04:55:57.117Z,1005.72
2017-04-30T04:56:57.152Z,1005.65
2017-04-30T04:57:57.184Z,1005.7
2017-04-30T04:58:57.219Z,1005.69
2017-04-30T04:59:57.251Z,1005.7
2017-04-30T05:00:57.284Z,1005.66
2017-04-30T05:01:57.318Z,1005.74
2017-04-30T05:02:57.350Z,1005.69
2017-04-30T05:03:57.385Z,1005.68
2017-04-30T05:04:57.419Z,1005.66
2017-04-30T05:05:57.453Z,1005.68
2017-04-30T05:06:57.485Z,1005.63
2017-04-30T05:07:57.519Z,1005.64
2017-04-30T05:08:57.553Z,1005.65
2017-04-30T05:09:57.586Z,1005.6
2017-04-30T05:10:57.620Z,1005.64
2017-04-30T05:11:57.653Z,1005.67
2017-04-30T05:12:57.686Z,1005.64
2017-04-30T05:13:57.722Z,1005.61
2017-04-30T05:14:57.754Z,1005.62
2017-04-30T05:15:57.788Z,1005.62
2017-04-30T05:16:57.822Z,1005.63
2017-04-30T05:17:57.856Z,1005.6
2017-04-30T05:18:57.891Z,1005.63
2017-04-30T05:19:57.922Z,1005.6
2017-04-30T05:20:57.957Z,1005.58
2017-04-30T05:21:57.989Z,1005.59
2017-04-30T05:22:58.023Z,1005.61
2017-04-30T05:23:58.056Z,1005.58
2017-04-30T05:24:58.098Z,1005.69
2017-04-30T05:25:58.125Z,1005.67
2017-04-30T05:26:58.159Z,1005.65
2017-04-30T05:27:58.191Z,1005.74
2017-04-30T05:28:58.228Z,1005.74
2017-04-30T05:29:58.261Z,1005.81
2017-04-30T05:30:58.297Z,1005.73
2017-04-30T05:31:58.333Z,1005.77
2017-04-30T05:32:58.375Z,1005.78
2017-04-30T05:33:58.407Z,1005.82
2017-04-30T05:34:58.441Z,1005.8
2017-04-30T05:35:58.480Z,1005.88
2017-04-30T05:36:58.517Z,1005.85
2017-04-30T05:37:58.555Z,1005.88
2017-04-30T05:38:58.594Z,1005.88
2017-04-30T05:39:58.633Z,1005.86
2017-04-30T05:40:58.671Z,1005.88
2017-04-30T05:41:58.710Z,1005.87
2017-04-30T05:42:58.749Z,1005.86
2017-04-30T05:43:58.790Z,1005.85
2017-04-30T05:44:58.830Z,1005.89
2017-04-30T05:45:58.870Z,1005.92
2017-04-30T05:46:58.911Z,1005.9
2017-04-30T05:47:58.951Z,1005.89
2017-04-30T05:48:58.993Z,1005.89
2017-04-30T05:49:59.034Z,1005.87
2017-04-30T05:50:59.078Z,1005.89
2017-04-30T05:51:59.118Z,1005.88
2017-04-30T05:52:59.159Z,1005.83
2017-04-30T05:53:59.202Z,1005.82
2017-04-30T05:54:59.246Z,1005.82
2017-04-30T05:55:59.289Z,1005.85
2017-04-30T05:56:59.331Z,1005.84
2017-04-30T05:57:59.376Z,1005.84
2017-04-30T05:58:59.418Z,1005.84
2017-04-30T05:59:59.463Z,1005.87
2017-04-30T06:00:59.505Z,1005.85
2017-04-30T06:01:59.550Z,1005.87
2017-04-30T06:02:59.594Z,1005.8
2017-04-30T06:03:59.637Z,1005.83
2017-04-30T06:04:59.683Z,1005.86
2017-04-30T06:05:59.731Z,1005.88
2017-04-30T06:06:59.771Z,1005.89
2017-04-30T06:07:59.817Z,1005.85
2017-04-30T06:08:59.860Z,1005.86
2017-04-30T06:09:59.920Z,1005.87
2017-04-30T06:10:59.951Z,1005.84
2017-04-30T06:12:00.005Z,1005.89
2017-04-30T06:13:00.041Z,1005.9
2017-04-30T06:14:00.089Z,1005.86
2017-04-30T06:15:00.133Z,1005.89
2017-04-30T06:16:00.179Z,1005.89
2017-04-30T06:17:00.225Z,1005.89
2017-04-30T06:18:00.272Z,1005.89
2017-04-30T06:19:00.317Z,1005.87
2017-04-30T06:20:00.364Z,1005.88
2017-04-30T06:21:00.410Z,1005.92
2017-04-30T06:22:00.457Z,1005.91
2017-04-30T06:23:00.503Z,1005.87
2017-04-30T06:24:00.550Z,1005.91
2017-04-30T06:25:00.632Z,1005.87
2017-04-30T06:26:00.643Z,1005.92
2017-04-30T06:27:00.690Z,1005.94
2017-04-30T06:28:00.739Z,1005.89
2017-04-30T06:29:00.788Z,1005.91
2017-04-30T06:30:00.833Z,1005.92
2017-04-30T06:31:00.895Z,1005.94
2017-04-30T06:32:00.933Z,1005.9
2017-04-30T06:33:00.984Z,1005.93
2017-04-30T06:34:01.025Z,1005.94
2017-04-30T06:35:01.072Z,1005.91
2017-04-30T06:36:01.121Z,1005.94
2017-04-30T06:37:01.168Z,1005.95
2017-04-30T06:38:01.218Z,1005.94
2017-04-30T06:39:01.264Z,1005.94
2017-04-30T06:40:01.317Z,1005.95
2017-04-30T06:41:01.362Z,1005.94
2017-04-30T06:42:01.429Z,1006
2017-04-30T06:43:01.460Z,1005.96
2017-04-30T06:44:01.508Z,1006
2017-04-30T06:45:01.566Z,1005.93
2017-04-30T06:46:01.607Z,1005.93
2017-04-30T06:47:01.660Z,1005.97
2017-04-30T06:48:01.705Z,1005.96
2017-04-30T06:49:01.753Z,1005.93
2017-04-30T06:50:01.805Z,1005.94
2017-04-30T06:51:01.864Z,1005.92
2017-04-30T06:52:01.902Z,1005.93
2017-04-30T06:53:01.950Z,1005.92
2017-04-30T06:54:01.999Z,1005.94
2017-04-30T06:55:02.050Z,1005.99
2017-04-30T06:56:02.100Z,1005.95
2017-04-30T06:57:02.149Z,1005.97
2017-04-30T06:58:02.199Z,1005.92
2017-04-30T06:59:02.249Z,1005.98
2017-04-30T07:00:02.300Z,1005.96
2017-04-30T07:01:02.349Z,1006
2017-04-30T07:02:02.400Z,1006.01
2017-04-30T07:03:02.448Z,1006
2017-04-30T07:04:02.500Z,1005.98
2017-04-30T07:05:02.551Z,1005.98
2017-04-30T07:06:02.600Z,1005.98
2017-04-30T07:07:02.650Z,1006.02
2017-04-30T07:08:02.701Z,1005.99
2017-04-30T07:09:02.751Z,1006.01
2017-04-30T07:10:02.801Z,1005.98
2017-04-30T07:11:02.854Z,1006
2017-04-30T07:12:02.902Z,1006
2017-04-30T07:13:02.953Z,1005.99
2017-04-30T07:14:03.004Z,1005.97
2017-04-30T07:15:03.056Z,1006.01
2017-04-30T07:16:03.110Z,1005.96
2017-04-30T07:17:03.159Z,1005.99
2017-04-30T07:18:03.209Z,1005.95
2017-04-30T07:19:03.259Z,1005.97
2017-04-30T07:20:03.310Z,1005.94
2017-04-30T07:21:03.362Z,1005.97
2017-04-30T07:22:03.413Z,1005.96
2017-04-30T07:23:03.464Z,1005.96
2017-04-30T07:24:03.516Z,1005.94
2017-04-30T07:25:03.568Z,1005.93
2017-04-30T07:26:03.618Z,1005.99
2017-04-30T07:27:03.670Z,1005.92
2017-04-30T07:28:03.720Z,1005.89
2017-04-30T07:29:03.773Z,1005.93
2017-04-30T07:30:03.823Z,1005.93
2017-04-30T07:31:03.876Z,1005.92
2017-04-30T07:32:03.928Z,1005.91
2017-04-30T07:33:03.978Z,1005.87
2017-04-30T07:34:04.036Z,1005.92
2017-04-30T07:35:04.082Z,1005.86
2017-04-30T07:36:04.133Z,1005.87
2017-04-30T07:37:04.187Z,1005.89
2017-04-30T07:38:04.238Z,1005.87
2017-04-30T07:39:04.289Z,1005.85
2017-04-30T07:40:04.341Z,1005.81
2017-04-30T07:41:04.394Z,1005.81
2017-04-30T07:42:04.446Z,1005.78
2017-04-30T07:43:04.499Z,1005.82
2017-04-30T07:44:04.551Z,1005.85
2017-04-30T07:45:04.608Z,1005.83
2017-04-30T07:46:04.656Z,1005.81
2017-04-30T07:47:04.709Z,1005.82
2017-04-30T07:48:04.760Z,1005.85
2017-04-30T07:49:04.815Z,1005.85
2017-04-30T07:50:04.866Z,1005.84
2017-04-30T07:51:04.920Z,1005.86
2017-04-30T07:52:04.973Z,1005.8
2017-04-30T07:53:05.026Z,1005.8
2017-04-30T07:54:05.079Z,1005.91
2017-04-30T07:55:05.130Z,1005.84
2017-04-30T07:56:05.183Z,1005.82
2017-04-30T07:57:05.243Z,1005.79
2017-04-30T07:58:05.287Z,1005.78
2017-04-30T07:59:05.342Z,1005.77
2017-04-30T08:00:05.395Z,1005.8
2017-04-30T08:01:05.446Z,1005.76
2017-04-30T08:02:05.500Z,1005.94
2017-04-30T08:03:05.551Z,1005.78
2017-04-30T08:04:05.603Z,1005.75
2017-04-30T08:05:05.655Z,1005.82
2017-04-30T08:06:05.706Z,1005.98
2017-04-30T08:07:05.761Z,1005.85
2017-04-30T08:08:05.810Z,1005.77
2017-04-30T08:09:05.865Z,1005.73
2017-04-30T08:10:05.918Z,1005.69
2017-04-30T08:11:05.969Z,1005.64
2017-04-30T08:12:06.019Z,1005.68
2017-04-30T08:13:06.071Z,1005.67
2017-04-30T08:14:06.123Z,1005.65
2017-04-30T08:15:06.175Z,1005.6
2017-04-30T08:16:06.228Z,1005.64
2017-04-30T08:17:06.280Z,1005.65
2017-04-30T08:18:06.333Z,1005.62
2017-04-30T08:19:06.383Z,1005.57
2017-04-30T08:20:06.435Z,1005.57
2017-04-30T08:21:06.488Z,1005.61
2017-04-30T08:22:06.542Z,1005.57
2017-04-30T08:23:06.595Z,1005.58
2017-04-30T08:24:06.647Z,1005.57
2017-04-30T08:25:06.698Z,1005.52
2017-04-30T08:26:06.751Z,1005.52
2017-04-30T08:27:06.803Z,1005.53
2017-04-30T08:28:06.855Z,1005.49
2017-04-30T08:29:06.909Z,1005.5
2017-04-30T08:30:06.960Z,1005.49
2017-04-30T08:31:07.014Z,1005.51
2017-04-30T08:32:07.065Z,1005.5
2017-04-30T08:33:07.118Z,1005.48
2017-04-30T08:34:07.172Z,1005.42
2017-04-30T08:35:07.224Z,1005.51
2017-04-30T08:36:07.276Z,1005.51
2017-04-30T08:37:07.331Z,1005.45
2017-04-30T08:38:07.382Z,1005.47
2017-04-30T08:39:07.436Z,1005.47
2017-04-30T08:40:07.490Z,1005.54
2017-04-30T08:41:07.543Z,1005.47
2017-04-30T08:42:07.595Z,1005.48
2017-04-30T08:43:07.651Z,1005.48
2017-04-30T08:44:07.731Z,1005.48
2017-04-30T08:45:07.754Z,1005.43
2017-04-30T08:46:07.808Z,1005.41
2017-04-30T08:47:07.861Z,1005.43
2017-04-30T08:48:07.915Z,1005.43
2017-04-30T08:49:07.969Z,1005.35
2017-04-30T08:50:08.022Z,1005.4
2017-04-30T08:51:08.074Z,1005.37
2017-04-30T08:52:08.130Z,1005.39
2017-04-30T08:53:08.188Z,1005.42
2017-04-30T08:54:08.237Z,1005.36
2017-04-30T08:55:08.288Z,1005.35
2017-04-30T08:56:08.342Z,1005.32
2017-04-30T08:57:08.394Z,1005.36
2017-04-30T08:58:08.447Z,1005.27
2017-04-30T08:59:08.501Z,1005.27
2017-04-30T09:00:08.554Z,1005.32
2017-04-30T09:01:08.606Z,1005.31
2017-04-30T09:02:08.658Z,1005.32
2017-04-30T09:03:08.711Z,1005.31
2017-04-30T09:04:08.763Z,1005.27
2017-04-30T09:05:08.816Z,1005.32
2017-04-30T09:06:08.870Z,1005.32
2017-04-30T09:07:08.922Z,1005.31
2017-04-30T09:08:08.974Z,1005.24
2017-04-30T09:09:09.028Z,1005.26
2017-04-30T09:10:09.079Z,1005.27
2017-04-30T09:11:09.132Z,1005.29
2017-04-30T09:12:09.186Z,1005.25
2017-04-30T09:13:09.240Z,1005.23
2017-04-30T09:14:09.290Z,1005.1
2017-04-30T09:15:09.348Z,1005.21
2017-04-30T09:16:09.397Z,1005.09
2017-04-30T09:17:09.447Z,1005.23
2017-04-30T09:18:09.500Z,1005.23
2017-04-30T09:19:09.555Z,1005.18
2017-04-30T09:20:09.606Z,1005.19
2017-04-30T09:21:09.659Z,1005.19
2017-04-30T09:22:09.710Z,1005.18
2017-04-30T09:23:09.762Z,1005.2
2017-04-30T09:24:09.816Z,1005.16
2017-04-30T09:25:09.866Z,1005.15
2017-04-30T09:26:09.920Z,1005.18
2017-04-30T09:27:09.972Z,1005.21
2017-04-30T09:28:10.026Z,1005.18
2017-04-30T09:29:10.078Z,1005.23
2017-04-30T09:30:10.133Z,1005.2
2017-04-30T09:31:10.187Z,1005.16
2017-04-30T09:32:10.236Z,1005.12
2017-04-30T09:33:10.290Z,1005.13
2017-04-30T09:34:10.343Z,1005.08
2017-04-30T09:35:10.396Z,1005.18
2017-04-30T09:36:10.449Z,1005.17
2017-04-30T09:37:10.501Z,1005.1
2017-04-30T09:38:10.556Z,1005.17
2017-04-30T09:39:10.608Z,1005.21
2017-04-30T09:40:10.660Z,1005.13
2017-04-30T09:41:10.713Z,1005.18
2017-04-30T09:42:10.768Z,1005.12
2017-04-30T09:43:10.821Z,1005.19
2017-04-30T09:44:10.875Z,1005.09
2017-04-30T09:45:10.926Z,1005.1
2017-04-30T09:46:10.980Z,1004.99
2017-04-30T09:47:11.032Z,1005.11
2017-04-30T09:48:11.085Z,1004.99
2017-04-30T09:49:11.138Z,1005.02
2017-04-30T09:50:11.194Z,1004.99
2017-04-30T09:51:11.242Z,1004.98
2017-04-30T09:52:11.295Z,1004.94
2017-04-30T09:53:11.349Z,1005.02
2017-04-30T09:54:11.399Z,1005.04
2017-04-30T09:55:11.452Z,1004.94
2017-04-30T09:56:11.505Z,1004.97
2017-04-30T09:57:11.557Z,1004.95
2017-04-30T09:58:11.609Z,1004.91
2017-04-30T09:59:11.659Z,1004.92
2017-04-30T10:00:11.712Z,1004.84
2017-04-30T10:01:11.764Z,1004.86
2017-04-30T10:02:11.814Z,1004.84
2017-04-30T10:03:11.866Z,1004.89
2017-04-30T10:04:11.921Z,1004.85
2017-04-30T10:05:11.969Z,1004.82
2017-04-30T10:06:12.026Z,1004.86
2017-04-30T10:07:12.074Z,1004.76
2017-04-30T10:08:12.128Z,1004.72
2017-04-30T10:09:12.181Z,1004.62
2017-04-30T10:10:12.233Z,1004.69
2017-04-30T10:11:12.285Z,1004.69
2017-04-30T10:12:12.339Z,1004.82
2017-04-30T10:13:12.392Z,1004.77
2017-04-30T10:14:12.446Z,1004.68
2017-04-30T10:15:12.496Z,1004.49
2017-04-30T10:16:12.551Z,1004.59
2017-04-30T10:17:12.603Z,1004.69
2017-04-30T10:18:12.658Z,1004.63
2017-04-30T10:19:12.708Z,1004.55
2017-04-30T10:20:12.760Z,1004.61
2017-04-30T10:21:12.812Z,1004.57
2017-04-30T10:22:12.864Z,1004.57
2017-04-30T10:23:12.915Z,1004.6
2017-04-30T10:24:12.967Z,1004.59
2017-04-30T10:25:13.018Z,1004.53
2017-04-30T10:26:13.072Z,1004.57
2017-04-30T10:27:13.123Z,1004.57
2017-04-30T10:28:13.176Z,1004.51
2017-04-30T10:29:13.227Z,1004.6
2017-04-30T10:30:13.280Z,1004.36
2017-04-30T10:31:13.330Z,1004.51
2017-04-30T10:32:13.384Z,1004.52
2017-04-30T10:33:13.435Z,1004.49
2017-04-30T10:34:13.486Z,1004.5
2017-04-30T10:35:13.539Z,1004.49
2017-04-30T10:36:13.591Z,1004.39
2017-04-30T10:37:13.642Z,1004.29
2017-04-30T10:38:13.694Z,1004.44
2017-04-30T10:39:13.745Z,1004.44
2017-04-30T10:40:13.798Z,1004.38
2017-04-30T10:41:13.849Z,1004.48
2017-04-30T10:42:13.899Z,1004.34
2017-04-30T10:43:13.952Z,1004.36
2017-04-30T10:44:14.003Z,1004.46
2017-04-30T10:45:14.055Z,1004.38
2017-04-30T10:46:14.105Z,1004.36
2017-04-30T10:47:14.157Z,1004.37
2017-04-30T10:48:14.209Z,1004.39
2017-04-30T10:49:14.260Z,1004.51
2017-04-30T10:50:14.311Z,1004.43
2017-04-30T10:51:14.362Z,1004.25
2017-04-30T10:52:14.414Z,1004.31
2017-04-30T10:53:14.465Z,1004.44
2017-04-30T10:54:14.516Z,1004.3
2017-04-30T10:55:14.566Z,1004.32
2017-04-30T10:56:14.619Z,1004.36
2017-04-30T10:57:14.668Z,1004.3
2017-04-30T10:58:14.719Z,1004.28
2017-04-30T10:59:14.771Z,1004.36
2017-04-30T11:00:14.821Z,1004.34
2017-04-30T11:01:14.873Z,1004.3
2017-04-30T11:02:14.924Z,1004.13
2017-04-30T11:03:14.974Z,1004.25
2017-04-30T11:04:15.023Z,1004.2
2017-04-30T11:05:15.074Z,1004.29
2017-04-30T11:06:15.126Z,1004.05
2017-04-30T11:07:15.174Z,1004.1
2017-04-30T11:08:15.223Z,1004.11
2017-04-30T11:09:15.274Z,1004.15
2017-04-30T11:10:15.324Z,1004.16
2017-04-30T11:11:15.374Z,1004.11
2017-04-30T11:12:15.420Z,1004.13
2017-04-30T11:13:15.470Z,1004.13
2017-04-30T11:14:15.518Z,1004.15
2017-04-30T11:15:15.565Z,1004.02
2017-04-30T11:16:15.616Z,1004.12
2017-04-30T11:17:15.662Z,1004.12
2017-04-30T11:18:15.712Z,1003.98
2017-04-30T11:19:15.758Z,1004.02
2017-04-30T11:20:15.807Z,1004.04
2017-04-30T11:21:15.853Z,1004
2017-04-30T11:22:15.899Z,1004.18
2017-04-30T11:23:15.947Z,1003.99
2017-04-30T11:24:15.994Z,1004.01
2017-04-30T11:25:16.041Z,1003.99
2017-04-30T11:26:16.086Z,1003.89
2017-04-30T11:27:16.134Z,1003.89
2017-04-30T11:28:16.178Z,1003.95
2017-04-30T11:29:16.225Z,1003.93
2017-04-30T11:30:16.268Z,1003.88
2017-04-30T11:31:16.315Z,1003.8
2017-04-30T11:32:16.365Z,1003.76
2017-04-30T11:33:16.403Z,1003.73
2017-04-30T11:34:16.448Z,1003.72
2017-04-30T11:35:16.492Z,1003.64
2017-04-30T11:36:16.537Z,1003.71
2017-04-30T11:37:16.577Z,1003.68
2017-04-30T11:38:16.625Z,1003.56
2017-04-30T11:39:16.667Z,1003.52
2017-04-30T11:40:16.709Z,1003.6
2017-04-30T11:41:16.752Z,1003.43
2017-04-30T11:42:16.796Z,1003.46
2017-04-30T11:43:16.840Z,1003.49
2017-04-30T11:44:16.880Z,1003.44
2017-04-30T11:45:16.923Z,1003.36
2017-04-30T11:46:16.965Z,1003.47
2017-04-30T11:47:17.009Z,1003.37
2017-04-30T11:48:17.049Z,1003.37
2017-04-30T11:49:17.091Z,1003.31
2017-04-30T11:50:17.137Z,1003.53
2017-04-30T11:51:17.176Z,1003.28
2017-04-30T11:52:17.217Z,1003.61
2017-04-30T11:53:17.261Z,1003.2
2017-04-30T11:54:17.301Z,1003.24
2017-04-30T11:55:17.343Z,1003.2
2017-04-30T11:56:17.384Z,1003.21
2017-04-30T11:57:17.424Z,1003.18
2017-04-30T11:58:17.466Z,1003.15
2017-04-30T11:59:17.507Z,1003.19
2017-04-30T12:00:17.547Z,1003.16
2017-04-30T12:01:17.589Z,1003.13
2017-04-30T12:02:17.630Z,1003.09
2017-04-30T12:03:17.670Z,1003.12
2017-04-30T12:04:17.710Z,1002.99
2017-04-30T12:05:17.753Z,1003.07
2017-04-30T12:06:17.791Z,1002.94
2017-04-30T12:07:17.832Z,1002.91
2017-04-30T12:08:17.874Z,1002.93
2017-04-30T12:09:17.914Z,1003.32